Terminal Aerodrome Forecast
Issued by NWS

Home | Current Version | Previous Version | Text Only | Print | Product List | Glossary On
Versions: 1 2 3 4 5 6 7 8 9 10 11 12 13 14 15 16 17 18
172
FTUS41 KBGM 280539
TAFELM
TAF
KELM 280539Z 2806/0106 VRB03KT P6SM -SHRA BKN050
      TEMPO 2808/2812 SCT050 OVC100
     FM281200 15005KT P6SM BKN150
     FM281800 16008KT P6SM OVC080
     FM010000 17010KT P6SM SCT015 OVC040
      TEMPO 0103/0106 5SM -SHRA BR OVC015=

USA.gov is the U.S. government's official web portal to all federal, state and local government web resources and services.